Medallion — V7KM6 — position and weather

sailwx.info

Track history (hours):
 
Tides and Currents Weather Stations Pressure Air Temp Water Temp Dewpoint Dewpoint Depression Visibility Wind Speed Wind Dir Waves Ship Positions

Medallion

Last reported at 2015-Aug-02 13:33 UTC. Time now 2015-Aug-02 14:19 UTC.
Position N 41°29' W 071°19'.

Length 20 m; draft 7 m.

Type: Pleasure craft. MMSI: 538070246.

Date/timePositionNaut miles runAvg speedWind from/ knotsBaromVisibWave heightAir tempDewpointWater temp
2015-Aug-02 13:33N 41°29' W 071°19'0 0.0
2015-Aug-02 12:33N 41°29' W 071°19'0 0.0
2015-Aug-02 11:31N 41°29' W 071°19'0 0.0
2015-Aug-02 10:32N 41°29' W 071°19'0 0.0
2015-Aug-02 09:32N 41°29' W 071°19'0 0.0
2015-Aug-02 08:33N 41°29' W 071°19'0 0.0
2015-Aug-02 07:31N 41°29' W 071°19'0 0.0
2015-Aug-02 06:31N 41°29' W 071°19'0 0.0
2015-Aug-02 05:32N 41°29' W 071°19'0 0.0
2015-Aug-02 04:33N 41°29' W 071°19'0 0.0
2015-Aug-02 03:33N 41°29' W 071°19'0 0.0
2015-Aug-02 02:28N 41°29' W 071°19'0 0.0
2015-Aug-02 01:29N 41°29' W 071°19'0 0.0
2015-Aug-02 00:32N 41°29' W 071°19'0 0.0
2015-Aug-01 23:33N 41°29' W 071°19'0 0.0
2015-Aug-01 22:28N 41°29' W 071°19'0 0.0
2015-Aug-01 21:31N 41°29' W 071°19'0 0.0
2015-Aug-01 20:29N 41°29' W 071°19'0 0.0
2015-Aug-01 19:33N 41°29' W 071°19'0 0.0
2015-Aug-01 18:33N 41°29' W 071°19'0 0.0
2015-Aug-01 17:31N 41°29' W 071°19'0 0.0
2015-Aug-01 16:26N 41°29' W 071°19'0 0.0
2015-Aug-01 15:33N 41°29' W 071°19'3 2.9
2015-Aug-01 14:34N 41°26' W 071°19'9 8.6
2015-Aug-01 13:33N 41°27' W 071°08'8 8.1
2015-Aug-01 12:33N 41°29' W 070°57'8 7.8
2015-Aug-01 11:33N 41°33' W 070°49'8 8.0
2015-Aug-01 10:33N 41°39' W 070°41'7 6.8
2015-Aug-01 09:33N 41°45' W 070°36'6 6.5
2015-Aug-01 08:33N 41°48' W 070°29'17 8.2
2015-Aug-01 06:30N 42°04' W 070°35'26 7.7
2015-Aug-01 03:07N 42°21' W 071°02'1 0.0
2015-Jul-31 09:18N 42°22' W 071°03'0 0.0
2015-Jul-31 08:17N 42°22' W 071°03'16 0.4
2015-Jul-29 14:29N 42°30' W 070°44'1110.4
2015-Jul-29 13:26N 42°38' W 070°34'6 6.3
2015-Jul-29 12:33N 42°43' W 070°34'9 8.7
2015-Jul-29 11:34N 42°52' W 070°38'9 8.7
2015-Jul-29 10:33N 42°60' W 070°41'4 0.4
2015-Jul-28 23:30N 43°03' W 070°44'  
Track history (hours):
 
Tides and Currents Weather Stations Pressure Air Temp Water Temp Dewpoint Dewpoint Depression Visibility Wind Speed Wind Dir Waves Ship Positions

Medallion

Last reported at 2015-Aug-02 13:33 UTC. Time now 2015-Aug-02 14:19 UTC.
Position N 41°29' W 071°19'.

Length 20 m; draft 7 m.

Type: Pleasure craft. MMSI: 538070246.

Date/timePositionNaut miles runAvg speedWind from/ knotsBaromVisibWave heightAir tempDewpointWater temp
2015-Aug-02 13:33N 41°29' W 071°19'0 0.0
2015-Aug-02 12:33N 41°29' W 071°19'0 0.0
2015-Aug-02 11:31N 41°29' W 071°19'0 0.0
2015-Aug-02 10:32N 41°29' W 071°19'0 0.0
2015-Aug-02 09:32N 41°29' W 071°19'0 0.0
2015-Aug-02 08:33N 41°29' W 071°19'0 0.0
2015-Aug-02 07:31N 41°29' W 071°19'0 0.0
2015-Aug-02 06:31N 41°29' W 071°19'0 0.0
2015-Aug-02 05:32N 41°29' W 071°19'0 0.0
2015-Aug-02 04:33N 41°29' W 071°19'0 0.0
2015-Aug-02 03:33N 41°29' W 071°19'0 0.0
2015-Aug-02 02:28N 41°29' W 071°19'0 0.0
2015-Aug-02 01:29N 41°29' W 071°19'0 0.0
2015-Aug-02 00:32N 41°29' W 071°19'0 0.0
2015-Aug-01 23:33N 41°29' W 071°19'0 0.0
2015-Aug-01 22:28N 41°29' W 071°19'0 0.0
2015-Aug-01 21:31N 41°29' W 071°19'0 0.0
2015-Aug-01 20:29N 41°29' W 071°19'0 0.0
2015-Aug-01 19:33N 41°29' W 071°19'0 0.0
2015-Aug-01 18:33N 41°29' W 071°19'0 0.0
2015-Aug-01 17:31N 41°29' W 071°19'0 0.0
2015-Aug-01 16:26N 41°29' W 071°19'0 0.0
2015-Aug-01 15:33N 41°29' W 071°19'3 2.9
2015-Aug-01 14:34N 41°26' W 071°19'9 8.6
2015-Aug-01 13:33N 41°27' W 071°08'8 8.1
2015-Aug-01 12:33N 41°29' W 070°57'8 7.8
2015-Aug-01 11:33N 41°33' W 070°49'8 8.0
2015-Aug-01 10:33N 41°39' W 070°41'7 6.8
2015-Aug-01 09:33N 41°45' W 070°36'6 6.5
2015-Aug-01 08:33N 41°48' W 070°29'17 8.2
2015-Aug-01 06:30N 42°04' W 070°35'26 7.7
2015-Aug-01 03:07N 42°21' W 071°02'1 0.0
2015-Jul-31 09:18N 42°22' W 071°03'0 0.0
2015-Jul-31 08:17N 42°22' W 071°03'16 0.4
2015-Jul-29 14:29N 42°30' W 070°44'1110.4
2015-Jul-29 13:26N 42°38' W 070°34'6 6.3
2015-Jul-29 12:33N 42°43' W 070°34'9 8.7
2015-Jul-29 11:34N 42°52' W 070°38'9 8.7
2015-Jul-29 10:33N 42°60' W 070°41'4 0.4
2015-Jul-28 23:30N 43°03' W 070°44'  

Dump ship's entire track history